SLJE/SJS METAR and TAF weather

Enter ICAO airport designator
Station Type Date Time Source
SLJE METAR 2018/12/10 13:00 UTC NOAA

SLJE 101300Z 00000KT 9999 FEW020 BKN200 31/25 Q1018


Station Type Date Time Source
SLJE Decoded METAR 2018/12/10 13:00 UTC NOAA

San Jose De Chiquitos, Bolivia (SLJE) 17-48S 060-44W
Dec 10, 2018 - 08:00 AM EST / 2018.12.10 1300 UTC
Wind: Calm:0
Visibility: greater than 7 mile(s):0
Sky conditions: mostly cloudy
Temperature: 87 F (31 C)
Heat index: 97.5 F (36.4 C):1
Dew Point: 77 F (25 C)
Relative Humidity: 70%
Pressure (altimeter): 30.06 in. Hg (1018 hPa)
ob: SLJE 101300Z 00000KT 9999 FEW020 BKN200 31/25 Q1018
cycle: 13

Station Type Date Time Source
SLJE TAF 2009/01/07 11:00 UTC NOAA

METAR SLJE 071100Z 00000KT 9999 SKC 21/18 Q1014


Example: see airport list